KGRR/GRR METAR and TAF weather

Enter ICAO airport designator
Station Type Date Time Source
KGRR METAR 2018/12/19 03:53 UTC NOAA

KGRR 190353Z 19007KT 10SM SCT250 01/M04 A3003 RMK AO2 SLP176 T00061044


Station Type Date Time Source
KGRR Decoded METAR 2018/12/19 03:53 UTC NOAA

GERALD R. FORD INTERNATIONAL, MI, United States (KGRR) 42-53N 085-31W 239M
Dec 18, 2018 - 10:53 PM EST / 2018.12.19 0353 UTC
Wind: from the S (190 degrees) at 8 MPH (7 KT):0
Visibility: 10 mile(s):0
Sky conditions: partly cloudy
Temperature: 33.1 F (0.6 C)
Windchill: 26 F (-3 C):1
Dew Point: 24.1 F (-4.4 C)
Relative Humidity: 69%
Pressure (altimeter): 30.03 in. Hg (1016 hPa)
ob: KGRR 190353Z 19007KT 10SM SCT250 01/M04 A3003 RMK AO2 SLP176 T00061044
cycle: 4

Station Type Date Time Source
KGRR TAF 2018/12/18 18:42 UTC NOAA

TAF KGRR 181740Z 1818/1918 19006KT P6SM FEW150


Example: see airport list